createdAt,value
2023-02-24T00:02:28.030Z,24.85
2023-02-24T00:05:34.570Z,27.35
2023-02-24T00:08:36.346Z,27.10
2023-02-24T00:11:40.028Z,28.58
2023-02-24T00:14:45.128Z,26.38
2023-02-24T00:17:46.960Z,25.20
2023-02-24T00:20:50.147Z,24.92
2023-02-24T00:23:53.817Z,27.10
2023-02-24T00:26:57.523Z,25.55
2023-02-24T00:30:00.098Z,27.13
2023-02-24T00:33:01.958Z,27.33
2023-02-24T00:36:14.428Z,27.67
2023-02-24T00:39:16.324Z,29.05
2023-02-24T00:42:18.346Z,29.40
2023-02-24T00:45:20.688Z,30.10
2023-02-24T00:48:22.664Z,28.23
2023-02-24T00:51:26.419Z,29.25
2023-02-24T00:54:28.444Z,26.20
2023-02-24T00:57:30.234Z,30.67
2023-02-24T01:00:32.878Z,28.45
2023-02-24T01:03:35.069Z,26.88
2023-02-24T01:06:41.841Z,25.52
2023-02-24T01:09:43.661Z,28.00
2023-02-24T01:12:45.727Z,26.92
2023-02-24T01:15:47.651Z,29.65
2023-02-24T01:18:49.599Z,31.10
2023-02-24T01:21:53.356Z,27.88
2023-02-24T01:24:55.096Z,26.17
2023-02-24T01:27:56.889Z,25.95
2023-02-24T01:31:02.317Z,26.20
2023-02-24T01:34:04.150Z,25.65
2023-02-24T01:37:08.182Z,27.77
2023-02-24T01:40:12.963Z,27.80
2023-02-24T01:43:14.760Z,32.22
2023-02-24T01:46:16.638Z,28.38
2023-02-24T01:49:22.700Z,26.00
2023-02-24T01:52:30.772Z,22.98
2023-02-24T01:55:36.188Z,25.33
2023-02-24T01:58:38.347Z,32.17
2023-02-24T02:01:43.305Z,28.58
2023-02-24T02:04:51.065Z,28.85
2023-02-24T02:07:55.878Z,25.98
2023-02-24T02:11:03.756Z,27.83
2023-02-24T02:14:06.241Z,27.70
2023-02-24T02:17:16.401Z,27.85
2023-02-24T02:21:04.517Z,26.00
2023-02-24T02:24:26.490Z,25.02
2023-02-24T02:27:57.005Z,27.63
2023-02-24T02:31:27.431Z,27.52
2023-02-24T02:34:47.916Z,28.60
2023-02-24T02:37:55.281Z,31.52
2023-02-24T02:41:09.265Z,26.85
2023-02-24T02:44:19.123Z,28.23
2023-02-24T02:47:26.818Z,29.75
2023-02-24T02:50:35.212Z,28.00
2023-02-24T02:53:43.497Z,25.47
2023-02-24T02:56:49.718Z,30.63
2023-02-24T02:59:55.859Z,28.83
2023-02-24T03:03:05.490Z,27.83
2023-02-24T03:06:14.597Z,27.42
2023-02-24T03:12:24.773Z,26.50
2023-02-24T03:15:30.988Z,29.98
2023-02-24T03:18:38.952Z,26.75
2023-02-24T03:21:48.588Z,28.65
2023-02-24T03:24:50.905Z,27.77
2023-02-24T03:27:59.152Z,27.80
2023-02-24T03:31:06.209Z,30.95
2023-02-24T03:34:13.416Z,25.50
2023-02-24T03:37:18.281Z,26.02
2023-02-24T03:40:20.091Z,28.60
2023-02-24T03:43:28.550Z,28.35
2023-02-24T03:46:31.803Z,19.93
2023-02-24T03:49:33.551Z,25.80
2023-02-24T03:52:43.154Z,25.70
2023-02-24T03:55:58.494Z,25.65
2023-02-24T03:59:16.328Z,25.98
2023-02-24T04:02:22.252Z,25.13
2023-02-24T04:05:28.756Z,23.33
2023-02-24T04:08:41.352Z,25.48
2023-02-24T04:11:47.828Z,27.52
2023-02-24T04:14:55.914Z,26.38
2023-02-24T04:18:00.383Z,26.05
2023-02-24T04:21:05.138Z,24.38
2023-02-24T04:24:11.078Z,23.60
2023-02-24T04:27:15.391Z,23.92
2023-02-24T04:30:18.120Z,27.23
2023-02-24T04:33:20.005Z,33.53
2023-02-24T04:36:22.578Z,29.75
2023-02-24T04:39:26.210Z,24.60
2023-02-24T04:42:29.106Z,24.70
2023-02-24T04:45:32.452Z,27.60
2023-02-24T04:48:34.829Z,28.48
2023-02-24T04:51:37.048Z,22.88
2023-02-24T04:54:43.651Z,25.20
2023-02-24T04:57:45.635Z,26.38
2023-02-24T05:00:49.752Z,22.92
2023-02-24T05:03:51.563Z,28.00
2023-02-24T05:06:53.669Z,24.48
2023-02-24T05:09:57.196Z,28.45
2023-02-24T05:13:00.796Z,22.63
2023-02-24T05:16:07.215Z,23.90
2023-02-24T05:19:09.826Z,23.65
2023-02-24T05:22:11.643Z,18.55
2023-02-24T05:25:16.477Z,19.27
2023-02-24T05:28:20.123Z,17.73
2023-02-24T05:31:24.834Z,16.20
2023-02-24T05:34:28.496Z,19.75
2023-02-24T05:37:32.060Z,19.48
2023-02-24T05:40:35.458Z,19.58
2023-02-24T05:43:37.733Z,21.70
2023-02-24T05:46:41.992Z,20.13
2023-02-24T05:49:44.206Z,19.65
2023-02-24T05:52:47.145Z,18.38
2023-02-24T05:55:50.299Z,19.95
2023-02-24T05:58:54.482Z,25.42
2023-02-24T06:01:58.608Z,32.83
2023-02-24T06:05:01.022Z,24.65
2023-02-24T06:08:05.414Z,27.20
2023-02-24T06:11:09.197Z,19.00
2023-02-24T06:14:12.558Z,24.65
2023-02-24T06:17:16.242Z,22.45
2023-02-24T06:20:18.159Z,21.40
2023-02-24T06:23:19.963Z,16.85
2023-02-24T06:26:25.339Z,21.10
2023-02-24T06:29:27.184Z,27.60
2023-02-24T06:32:29.160Z,16.20
2023-02-24T06:35:31.014Z,18.27
2023-02-24T06:38:33.908Z,17.00
2023-02-24T06:41:38.268Z,16.17
2023-02-24T06:44:41.171Z,17.88
2023-02-24T06:47:43.600Z,16.80
2023-02-24T06:50:45.370Z,21.30
2023-02-24T06:53:47.134Z,21.65
2023-02-24T06:56:52.245Z,25.58
2023-02-24T06:59:55.517Z,16.65
2023-02-24T07:02:57.512Z,20.20
2023-02-24T07:06:02.937Z,22.38
2023-02-24T07:09:07.629Z,18.95
2023-02-24T07:12:10.904Z,17.80
2023-02-24T07:15:15.045Z,18.38
2023-02-24T07:18:17.283Z,22.92
2023-02-24T07:21:20.311Z,24.73
2023-02-24T07:24:22.949Z,22.10
2023-02-24T07:27:26.496Z,21.90
2023-02-24T07:30:29.471Z,27.42
2023-02-24T07:33:31.378Z,22.17
2023-02-24T07:36:33.657Z,21.45
2023-02-24T07:39:36.485Z,26.00
2023-02-24T07:42:41.165Z,23.88
2023-02-24T07:45:42.967Z,23.00
2023-02-24T07:48:45.518Z,27.38
2023-02-24T07:51:48.238Z,30.52
2023-02-24T07:54:55.417Z,31.33
2023-02-24T07:57:58.618Z,29.65
2023-02-24T08:01:01.779Z,31.83
2023-02-24T08:04:06.528Z,27.20
2023-02-24T08:07:08.278Z,25.75
2023-02-24T08:10:11.022Z,31.88
2023-02-24T08:13:14.159Z,30.25
2023-02-24T08:16:16.440Z,30.75
2023-02-24T08:19:20.080Z,22.77
2023-02-24T08:22:21.883Z,35.15
2023-02-24T08:25:25.267Z,39.60
2023-02-24T08:28:28.653Z,35.35
2023-02-24T08:31:31.615Z,38.30
2023-02-24T08:34:35.830Z,35.88
2023-02-24T08:37:37.875Z,30.13
2023-02-24T08:40:44.473Z,27.13
2023-02-24T08:43:48.793Z,29.63
2023-02-24T08:46:51.497Z,29.85
2023-02-24T08:49:53.361Z,37.25
2023-02-24T08:52:55.741Z,27.02
2023-02-24T08:55:59.690Z,27.00
2023-02-24T08:59:06.610Z,31.15
2023-02-24T09:02:13.737Z,39.97
2023-02-24T09:05:15.850Z,33.08
2023-02-24T09:08:19.453Z,26.08
2023-02-24T09:11:21.882Z,34.22
2023-02-24T09:14:28.920Z,23.27
2023-02-24T09:17:32.199Z,31.20
2023-02-24T09:20:36.920Z,23.08
2023-02-24T09:23:38.942Z,23.48
2023-02-24T09:26:43.423Z,17.85
2023-02-24T09:29:48.510Z,20.00
2023-02-24T09:32:50.540Z,17.50
2023-02-24T09:35:55.543Z,14.20
2023-02-24T09:38:59.483Z,14.07
2023-02-24T09:42:01.795Z,16.08
2023-02-24T09:45:11.970Z,14.73
2023-02-24T09:48:21.047Z,17.08
2023-02-24T09:51:23.505Z,14.30
2023-02-24T09:54:31.291Z,12.80
2023-02-24T09:57:41.713Z,17.13
2023-02-24T10:00:53.888Z,10.15
2023-02-24T10:04:01.033Z,13.90
2023-02-24T10:07:11.052Z,11.77
2023-02-24T10:10:18.374Z,12.18
2023-02-24T10:13:23.662Z,12.45
2023-02-24T10:16:28.512Z,15.05
2023-02-24T10:19:32.350Z,11.43
2023-02-24T10:22:46.397Z,12.23
2023-02-24T10:25:53.368Z,13.65
2023-02-24T10:29:03.922Z,12.15
2023-02-24T10:32:19.752Z,10.05
2023-02-24T10:35:23.214Z,9.30
2023-02-24T10:38:25.226Z,9.43
2023-02-24T10:41:28.236Z,10.00
2023-02-24T10:44:30.475Z,13.38
2023-02-24T10:47:37.402Z,13.68
2023-02-24T10:50:54.974Z,10.90
2023-02-24T10:54:08.167Z,10.15
2023-02-24T10:57:13.052Z,10.48
2023-02-24T11:00:19.418Z,13.65
2023-02-24T11:03:32.978Z,10.88
2023-02-24T11:06:35.960Z,20.08
2023-02-24T11:09:39.667Z,11.68
2023-02-24T11:12:45.819Z,12.23
2023-02-24T11:15:50.684Z,10.60
2023-02-24T11:18:55.244Z,11.88
2023-02-24T11:21:58.067Z,11.68
2023-02-24T11:25:05.458Z,10.15
2023-02-24T11:28:22.312Z,13.70
2023-02-24T11:31:39.607Z,13.77
2023-02-24T11:34:49.605Z,11.43
2023-02-24T11:38:04.402Z,12.57
2023-02-24T11:41:17.525Z,13.90
2023-02-24T11:44:25.073Z,14.63
2023-02-24T11:47:33.314Z,15.85
2023-02-24T11:50:44.813Z,15.50
2023-02-24T11:53:52.064Z,14.55
2023-02-24T11:56:57.523Z,14.65
2023-02-24T12:00:05.391Z,14.93
2023-02-24T12:03:14.229Z,16.83
2023-02-24T12:06:23.410Z,18.73
2023-02-24T12:09:31.164Z,14.45
2023-02-24T12:12:39.615Z,15.55
2023-02-24T12:15:48.387Z,19.17
2023-02-24T12:18:58.235Z,16.10
2023-02-24T12:22:05.620Z,18.58
2023-02-24T12:25:11.730Z,19.73
2023-02-24T12:28:24.141Z,17.00
2023-02-24T12:31:34.703Z,15.50
2023-02-24T12:34:48.421Z,22.02
2023-02-24T12:38:04.444Z,16.45
2023-02-24T12:41:25.202Z,21.23
2023-02-24T12:44:35.794Z,16.75
2023-02-24T12:47:52.595Z,15.80
2023-02-24T12:51:01.524Z,17.17
2023-02-24T12:54:09.336Z,16.48
2023-02-24T12:57:20.170Z,15.23
2023-02-24T13:00:31.572Z,18.85
2023-02-24T13:03:50.715Z,20.15
2023-02-24T13:07:01.909Z,16.37
2023-02-24T13:10:18.012Z,19.58
2023-02-24T13:13:27.965Z,12.48
2023-02-24T13:16:34.640Z,17.70
2023-02-24T13:19:37.986Z,20.65
2023-02-24T13:22:42.367Z,20.75
2023-02-24T13:25:53.009Z,15.27
2023-02-24T13:29:03.765Z,17.38
2023-02-24T13:32:05.773Z,14.93
2023-02-24T13:35:33.359Z,15.30
2023-02-24T13:38:40.504Z,16.83
2023-02-24T13:41:43.780Z,19.42
2023-02-24T13:44:49.607Z,22.63
2023-02-24T13:48:30.438Z,16.05
2023-02-24T13:52:05.377Z,22.40
2023-02-24T13:55:36.288Z,18.30
2023-02-24T13:59:03.123Z,19.75
2023-02-24T14:02:14.539Z,16.55
2023-02-24T14:05:25.323Z,16.83
2023-02-24T14:08:39.024Z,17.35
2023-02-24T14:11:42.074Z,22.23
2023-02-24T14:14:46.518Z,20.98
2023-02-24T14:17:55.797Z,15.20
2023-02-24T14:20:59.148Z,14.23
2023-02-24T14:24:07.270Z,18.08
2023-02-24T14:27:24.371Z,16.90
2023-02-24T14:30:34.432Z,16.77
2023-02-24T14:33:38.981Z,18.90
2023-02-24T14:36:45.571Z,20.48
2023-02-24T14:39:52.069Z,18.30
2023-02-24T14:42:56.062Z,19.98
2023-02-24T14:46:06.148Z,16.40
2023-02-24T14:49:18.685Z,19.00
2023-02-24T14:52:27.525Z,19.75
2023-02-24T14:55:32.892Z,20.42
2023-02-24T14:58:42.571Z,14.70
2023-02-24T15:01:48.469Z,16.85
2023-02-24T15:04:55.653Z,16.95
2023-02-24T15:08:02.015Z,22.77
2023-02-24T15:11:11.260Z,16.23
2023-02-24T15:14:21.255Z,19.13
2023-02-24T15:17:28.075Z,21.33
2023-02-24T15:20:33.280Z,15.10
2023-02-24T15:23:38.394Z,18.38
2023-02-24T15:26:40.212Z,17.30
2023-02-24T15:29:44.090Z,17.50
2023-02-24T15:32:47.759Z,17.98
2023-02-24T15:35:55.552Z,19.48
2023-02-24T15:39:01.523Z,18.85
2023-02-24T15:42:17.428Z,19.38
2023-02-24T15:45:30.897Z,18.73
2023-02-24T15:48:43.636Z,15.65
2023-02-24T15:51:48.261Z,16.33
2023-02-24T15:54:51.450Z,19.38
2023-02-24T15:58:01.001Z,20.30
2023-02-24T16:04:11.073Z,21.75
2023-02-24T16:07:18.277Z,17.73
2023-02-24T16:10:23.455Z,20.17
2023-02-24T16:13:28.566Z,20.45
2023-02-24T16:16:32.636Z,21.33
2023-02-24T16:19:35.972Z,29.70
2023-02-24T16:22:39.253Z,20.42
2023-02-24T16:25:43.329Z,25.55
2023-02-24T16:28:50.737Z,17.20
2023-02-24T16:31:54.159Z,25.20
2023-02-24T16:34:59.247Z,21.73
2023-02-24T16:38:01.717Z,23.42
2023-02-24T16:41:04.437Z,19.73
2023-02-24T16:44:06.753Z,18.35
2023-02-24T16:47:15.614Z,21.95
2023-02-24T16:50:22.404Z,19.38
2023-02-24T16:53:25.644Z,23.08
2023-02-24T16:56:29.753Z,26.02
2023-02-24T16:59:32.911Z,20.92
2023-02-24T17:02:37.678Z,22.38
2023-02-24T17:05:47.616Z,24.45
2023-02-24T17:08:50.141Z,23.95
2023-02-24T17:11:55.193Z,26.33
2023-02-24T17:14:58.345Z,23.02
2023-02-24T17:18:00.852Z,22.33
2023-02-24T17:21:06.207Z,24.17
2023-02-24T17:24:13.824Z,21.42
2023-02-24T17:27:18.231Z,27.08
2023-02-24T17:30:23.775Z,73.47
2023-02-24T17:33:26.314Z,29.92
2023-02-24T17:36:39.082Z,23.13
2023-02-24T17:39:41.344Z,21.08
2023-02-24T17:42:44.461Z,19.70
2023-02-24T17:45:49.121Z,22.13
2023-02-24T17:48:51.648Z,23.27
2023-02-24T17:51:55.034Z,22.80
2023-02-24T17:54:57.540Z,22.58
2023-02-24T17:58:00.409Z,20.83
2023-02-24T18:01:05.172Z,22.23
2023-02-24T18:04:08.280Z,21.15
2023-02-24T18:07:13.396Z,17.15
2023-02-24T18:10:16.074Z,19.27
2023-02-24T18:13:19.877Z,17.92
2023-02-24T18:16:23.463Z,20.75
2023-02-24T18:19:27.347Z,17.08
2023-02-24T18:22:34.053Z,19.95
2023-02-24T18:25:39.470Z,22.13
2023-02-24T18:28:42.873Z,22.70
2023-02-24T18:31:51.817Z,20.63
2023-02-24T18:34:55.079Z,20.13
2023-02-24T18:37:59.551Z,21.92
2023-02-24T18:41:04.279Z,16.73
2023-02-24T18:44:10.063Z,17.02
2023-02-24T18:47:14.335Z,18.48
2023-02-24T18:50:16.538Z,18.17
2023-02-24T18:53:21.848Z,21.70
2023-02-24T18:56:26.781Z,19.65
2023-02-24T18:59:30.706Z,14.50
2023-02-24T19:02:33.325Z,14.93
2023-02-24T19:05:39.113Z,16.63
2023-02-24T19:08:43.469Z,14.95
2023-02-24T19:11:47.655Z,17.58
2023-02-24T19:14:53.768Z,15.68
2023-02-24T19:17:58.274Z,15.13
2023-02-24T19:21:01.522Z,17.63
2023-02-24T19:24:08.944Z,20.73
2023-02-24T19:27:11.884Z,15.57
2023-02-24T19:30:16.581Z,19.27
2023-02-24T19:33:20.682Z,16.30
2023-02-24T19:36:24.922Z,17.73
2023-02-24T19:39:29.963Z,18.40
2023-02-24T19:42:33.676Z,15.02
2023-02-24T19:45:41.070Z,18.27
2023-02-24T19:48:45.365Z,20.65
2023-02-24T19:51:48.429Z,22.92
2023-02-24T19:54:56.060Z,16.85
2023-02-24T19:57:58.805Z,16.90
2023-02-24T20:01:07.110Z,14.07
2023-02-24T20:04:14.535Z,18.57
2023-02-24T20:07:17.245Z,20.27
2023-02-24T20:10:23.214Z,26.15
2023-02-24T20:13:26.516Z,20.13
2023-02-24T20:16:29.297Z,16.23
2023-02-24T20:19:34.812Z,14.52
2023-02-24T20:22:39.902Z,17.10
2023-02-24T20:25:52.105Z,13.52
2023-02-24T20:28:54.807Z,14.95
2023-02-24T20:31:57.974Z,15.55
2023-02-24T20:35:02.566Z,17.70
2023-02-24T20:38:06.069Z,16.15
2023-02-24T20:41:12.389Z,16.55
2023-02-24T20:44:17.086Z,17.75
2023-02-24T20:47:20.882Z,14.43
2023-02-24T20:50:24.292Z,11.88
2023-02-24T20:53:27.203Z,18.42
2023-02-24T20:56:35.063Z,18.15
2023-02-24T20:59:38.176Z,14.02
2023-02-24T21:02:40.976Z,17.35
2023-02-24T21:05:44.719Z,16.98
2023-02-24T21:08:47.457Z,13.15
2023-02-24T21:11:51.174Z,15.13
2023-02-24T21:14:55.976Z,15.40
2023-02-24T21:17:59.923Z,11.40
2023-02-24T21:21:01.977Z,13.27
2023-02-24T21:24:05.059Z,4.85
2023-02-24T21:27:08.970Z,5.80
2023-02-24T21:30:13.067Z,4.72
2023-02-24T21:33:16.459Z,4.40
2023-02-24T21:36:20.038Z,5.90
2023-02-24T21:39:23.346Z,9.65
2023-02-24T21:42:27.505Z,9.02
2023-02-24T21:45:29.981Z,7.88
2023-02-24T21:48:33.503Z,10.15
2023-02-24T21:51:35.678Z,6.40
2023-02-24T21:54:37.716Z,6.13
2023-02-24T21:57:44.709Z,4.57
2023-02-24T22:00:47.132Z,8.70
2023-02-24T22:03:54.964Z,8.07
2023-02-24T22:06:56.767Z,8.85
2023-02-24T22:09:58.540Z,8.15
2023-02-24T22:13:03.126Z,11.90
2023-02-24T22:16:09.750Z,10.73
2023-02-24T22:19:12.376Z,11.18
2023-02-24T22:22:14.381Z,16.85
2023-02-24T22:25:16.540Z,12.05
2023-02-24T22:28:20.031Z,15.30
2023-02-24T22:31:27.917Z,12.65
2023-02-24T22:34:29.783Z,11.18
2023-02-24T22:37:31.963Z,14.43
2023-02-24T22:40:34.120Z,15.60
2023-02-24T22:43:38.949Z,17.65
2023-02-24T22:46:42.229Z,13.18
2023-02-24T22:49:45.221Z,10.75
2023-02-24T22:52:47.155Z,9.40
2023-02-24T22:55:49.886Z,11.43
2023-02-24T22:58:53.539Z,12.45
2023-02-24T23:01:56.672Z,12.88
2023-02-24T23:04:58.530Z,8.40
2023-02-24T23:08:00.750Z,9.10
2023-02-24T23:11:08.096Z,8.63
2023-02-24T23:14:14.248Z,8.48
2023-02-24T23:17:17.384Z,9.20
2023-02-24T23:20:22.258Z,7.65
2023-02-24T23:23:24.111Z,7.55
2023-02-24T23:26:29.403Z,7.45
2023-02-24T23:29:32.857Z,9.75
2023-02-24T23:32:35.252Z,10.02
2023-02-24T23:35:38.495Z,10.77
2023-02-24T23:38:40.710Z,14.15
2023-02-24T23:41:44.043Z,14.45
2023-02-24T23:44:47.684Z,10.82
2023-02-24T23:47:51.454Z,10.55
2023-02-24T23:50:53.517Z,12.32
2023-02-24T23:53:55.339Z,10.88
2023-02-24T23:56:57.126Z,11.45
